Terminal Aerodrome Forecast
Issued by NWS Lake Charles, LA

Home | Current Version | Previous Version | Text Only | Print | Product List | Glossary On
Versions: 1 2 3 4 5 6 7 8 9 10 11 12 13 14 15
000
FTUS44 KLCH 311700
TAFAEX
TAF
KAEX 311722Z 3118/0118 10006KT P6SM VCSH FEW050 SCT100
     FM010200 VRB03KT P6SM VCSH SCT040 BKN120
     FM011100 VRB04KT P6SM VCSH BKN030
     FM011400 VRB04KT P6SM VCSH BKN040 PROB30 0114/0118 4SM SHRA=

USA.gov is the U.S. government's official web portal to all federal, state and local government web resources and services.